createdAt,value
2023-04-18T00:00:57.227Z,8.01
2023-04-18T00:03:23.787Z,7.95
2023-04-18T00:05:50.566Z,7.89
2023-04-18T00:08:17.017Z,7.83
2023-04-18T00:10:43.434Z,7.82
2023-04-18T00:13:10.186Z,7.80
2023-04-18T00:15:36.794Z,7.77
2023-04-18T00:18:03.762Z,7.77
2023-04-18T00:20:30.637Z,7.76
2023-04-18T00:22:57.077Z,7.77
2023-04-18T00:25:23.624Z,7.78
2023-04-18T00:27:50.037Z,7.77
2023-04-18T00:30:16.517Z,7.78
2023-04-18T00:32:43.068Z,7.79
2023-04-18T00:35:09.736Z,7.80
2023-04-18T00:37:37.192Z,7.79
2023-04-18T00:40:05.495Z,7.75
2023-04-18T00:42:31.930Z,7.71
2023-04-18T00:44:58.375Z,7.68
2023-04-18T00:47:25.180Z,7.64
2023-04-18T00:49:51.861Z,7.61
2023-04-18T00:52:19.005Z,7.56
2023-04-18T00:54:46.660Z,7.50
2023-04-18T00:57:13.381Z,7.45
2023-04-18T00:59:40.615Z,7.39
2023-04-18T01:02:07.146Z,7.33
2023-04-18T01:04:33.687Z,7.28
2023-04-18T01:07:02.149Z,7.23
2023-04-18T01:09:29.059Z,7.18
2023-04-18T01:11:55.552Z,7.13
2023-04-18T01:14:22.350Z,7.06
2023-04-18T01:16:49.002Z,7.02
2023-04-18T01:19:17.313Z,6.95
2023-04-18T01:21:44.107Z,6.89
2023-04-18T01:24:12.614Z,6.85
2023-04-18T01:26:40.473Z,6.82
2023-04-18T01:29:07.190Z,6.78
2023-04-18T01:31:36.038Z,6.74
2023-04-18T01:34:03.541Z,6.69
2023-04-18T01:36:30.653Z,6.64
2023-04-18T01:38:57.127Z,6.60
2023-04-18T01:41:23.552Z,6.58
2023-04-18T01:43:49.937Z,6.53
2023-04-18T01:46:16.887Z,6.49
2023-04-18T01:48:43.336Z,6.44
2023-04-18T01:51:09.749Z,6.39
2023-04-18T01:53:36.168Z,6.34
2023-04-18T01:56:02.576Z,6.31
2023-04-18T01:58:28.996Z,6.25
2023-04-18T02:00:58.880Z,6.22
2023-04-18T02:03:25.765Z,6.19
2023-04-18T02:05:52.673Z,6.16
2023-04-18T02:08:19.134Z,6.14
2023-04-18T02:10:45.868Z,6.14
2023-04-18T02:13:12.416Z,6.12
2023-04-18T02:15:38.853Z,6.09
2023-04-18T02:18:05.593Z,6.05
2023-04-18T02:20:33.465Z,6.02
2023-04-18T02:23:01.057Z,5.97
2023-04-18T02:25:28.848Z,5.92
2023-04-18T02:27:57.027Z,5.87
2023-04-18T02:30:25.054Z,5.84
2023-04-18T02:32:52.473Z,5.79
2023-04-18T02:35:20.394Z,5.76
2023-04-18T02:37:46.826Z,5.72
2023-04-18T02:40:13.410Z,5.68
2023-04-18T02:42:39.921Z,5.66
2023-04-18T02:45:07.396Z,5.63
2023-04-18T02:47:43.511Z,5.60
2023-04-18T02:50:18.022Z,5.58
2023-04-18T02:52:44.451Z,5.57
2023-04-18T02:55:10.983Z,5.55
2023-04-18T02:57:37.512Z,5.53
2023-04-18T03:00:06.447Z,5.51
2023-04-18T03:02:33.049Z,5.50
2023-04-18T03:04:59.703Z,5.48
2023-04-18T03:07:26.405Z,5.45
2023-04-18T03:09:52.938Z,5.44
2023-04-18T03:12:19.418Z,5.42
2023-04-18T03:14:45.881Z,5.39
2023-04-18T03:17:12.448Z,5.38
2023-04-18T03:19:38.906Z,5.36
2023-04-18T03:22:06.013Z,5.33
2023-04-18T03:24:32.391Z,5.28
2023-04-18T03:27:00.505Z,5.24
2023-04-18T03:29:26.903Z,5.19
2023-04-18T03:31:53.348Z,5.15
2023-04-18T03:34:19.841Z,5.12
2023-04-18T03:36:47.959Z,5.10
2023-04-18T03:39:14.788Z,5.09
2023-04-18T03:41:41.220Z,5.09
2023-04-18T03:44:07.647Z,5.07
2023-04-18T03:46:34.078Z,5.07
2023-04-18T03:49:00.916Z,5.09
2023-04-18T03:51:27.612Z,5.09
2023-04-18T03:53:54.191Z,5.08
2023-04-18T03:56:20.856Z,5.06
2023-04-18T03:58:47.312Z,5.03
2023-04-18T04:01:13.801Z,5.00
2023-04-18T04:03:40.403Z,4.98
2023-04-18T04:06:07.114Z,4.96
2023-04-18T04:08:33.897Z,4.93
2023-04-18T04:11:00.418Z,4.90
2023-04-18T04:13:26.879Z,4.88
2023-04-18T04:15:53.412Z,4.85
2023-04-18T04:18:20.205Z,4.83
2023-04-18T04:20:47.613Z,4.83
2023-04-18T04:23:13.969Z,4.83
2023-04-18T04:25:40.484Z,4.84
2023-04-18T04:28:08.236Z,4.84
2023-04-18T04:30:34.700Z,4.84
2023-04-18T04:33:01.742Z,4.82
2023-04-18T04:35:28.460Z,4.80
2023-04-18T04:37:54.854Z,4.76
2023-04-18T04:40:22.919Z,4.72
2023-04-18T04:42:53.973Z,4.70
2023-04-18T04:45:20.442Z,4.69
2023-04-18T04:47:47.374Z,4.71
2023-04-18T04:50:15.630Z,4.74
2023-04-18T04:52:42.874Z,4.76
2023-04-18T04:55:10.630Z,4.80
2023-04-18T04:57:37.678Z,4.83
2023-04-18T05:00:08.213Z,4.84
2023-04-18T05:02:34.981Z,4.86
2023-04-18T05:05:01.660Z,4.86
2023-04-18T05:07:28.602Z,4.87
2023-04-18T05:09:55.122Z,4.89
2023-04-18T05:12:21.575Z,4.90
2023-04-18T05:14:47.997Z,4.95
2023-04-18T05:17:14.446Z,4.98
2023-04-18T05:19:40.854Z,5.02
2023-04-18T05:22:07.236Z,5.07
2023-04-18T05:24:33.622Z,5.12
2023-04-18T05:27:00.254Z,5.18
2023-04-18T05:29:26.704Z,5.23
2023-04-18T05:31:53.171Z,5.29
2023-04-18T05:34:19.603Z,5.38
2023-04-18T05:36:47.751Z,5.46
2023-04-18T05:39:14.158Z,5.52
2023-04-18T05:41:40.723Z,5.58
2023-04-18T05:44:07.149Z,5.66
2023-04-18T05:46:33.719Z,5.75
2023-04-18T05:49:00.261Z,5.82
2023-04-18T05:51:28.593Z,5.88
2023-04-18T05:53:55.193Z,5.92
2023-04-18T05:56:21.643Z,5.99
2023-04-18T05:58:48.189Z,6.05
2023-04-18T06:01:14.653Z,6.13
2023-04-18T06:03:41.717Z,6.19
2023-04-18T06:06:08.478Z,6.25
2023-04-18T06:08:34.889Z,6.32
2023-04-18T06:11:01.505Z,6.39
2023-04-18T06:13:27.955Z,6.47
2023-04-18T06:15:54.528Z,6.54
2023-04-18T06:18:21.339Z,6.63
2023-04-18T06:20:47.776Z,6.74
2023-04-18T06:23:14.255Z,6.81
2023-04-18T06:25:43.897Z,6.91
2023-04-18T06:28:10.330Z,7.01
2023-04-18T06:30:37.165Z,7.11
2023-04-18T06:33:03.765Z,7.19
2023-04-18T06:35:31.426Z,7.31
2023-04-18T06:37:57.845Z,7.42
2023-04-18T06:40:24.247Z,7.52
2023-04-18T06:42:50.681Z,7.60
2023-04-18T06:45:17.273Z,7.67
2023-04-18T06:47:43.888Z,7.76
2023-04-18T06:50:10.760Z,7.83
2023-04-18T06:52:44.256Z,7.94
2023-04-18T06:55:12.191Z,8.04
2023-04-18T06:57:40.754Z,8.13
2023-04-18T07:00:07.808Z,8.23
2023-04-18T07:02:36.287Z,8.35
2023-04-18T07:05:03.219Z,8.46
2023-04-18T07:07:29.656Z,8.56
2023-04-18T07:09:56.136Z,8.67
2023-04-18T07:12:22.749Z,8.77
2023-04-18T07:14:49.165Z,8.86
2023-04-18T07:17:15.913Z,9.00
2023-04-18T07:19:42.439Z,9.12
2023-04-18T07:22:09.113Z,9.28
2023-04-18T07:24:36.130Z,9.41
2023-04-18T07:27:03.275Z,9.55
2023-04-18T07:29:29.751Z,9.68
2023-04-18T07:31:56.173Z,9.81
2023-04-18T07:34:22.818Z,9.89
2023-04-18T07:36:49.293Z,10.01
2023-04-18T07:39:15.789Z,10.11
2023-04-18T07:41:42.301Z,10.22
2023-04-18T07:44:08.791Z,10.32
2023-04-18T07:46:35.379Z,10.43
2023-04-18T07:49:04.765Z,10.53
2023-04-18T07:51:31.761Z,10.61
2023-04-18T07:53:59.378Z,10.71
2023-04-18T07:56:26.588Z,10.82
2023-04-18T07:58:53.243Z,10.95
2023-04-18T08:01:23.388Z,11.04
2023-04-18T08:03:51.024Z,11.14
2023-04-18T08:06:17.749Z,11.22
2023-04-18T08:08:44.559Z,11.33
2023-04-18T08:11:10.993Z,11.40
2023-04-18T08:13:37.412Z,11.46
2023-04-18T08:16:03.989Z,11.50
2023-04-18T08:18:30.483Z,11.49
2023-04-18T08:20:57.027Z,11.59
2023-04-18T08:23:23.513Z,11.67
2023-04-18T08:25:49.902Z,11.70
2023-04-18T08:28:16.316Z,11.75
2023-04-18T08:30:43.924Z,11.79
2023-04-18T08:33:10.680Z,11.81
2023-04-18T08:35:37.095Z,11.80
2023-04-18T08:38:03.536Z,11.82
2023-04-18T08:40:30.272Z,11.83
2023-04-18T08:42:58.598Z,11.89
2023-04-18T08:45:26.131Z,11.89
2023-04-18T08:47:53.446Z,11.90
2023-04-18T08:50:20.015Z,11.88
2023-04-18T08:52:49.557Z,11.93
2023-04-18T08:55:16.468Z,11.95
2023-04-18T08:57:43.772Z,11.97
2023-04-18T09:00:11.799Z,12.01
2023-04-18T09:02:44.835Z,12.09
2023-04-18T09:05:13.336Z,12.07
2023-04-18T09:07:40.575Z,12.10
2023-04-18T09:10:07.856Z,12.14
2023-04-18T09:12:50.243Z,12.17
2023-04-18T09:15:20.200Z,12.24
2023-04-18T09:17:56.213Z,12.46
2023-04-18T09:20:49.889Z,12.72
2023-04-18T09:23:24.481Z,13.01
2023-04-18T09:25:52.295Z,13.13
2023-04-18T09:28:23.430Z,13.24
2023-04-18T09:30:53.396Z,13.36
2023-04-18T09:33:34.049Z,13.55
2023-04-18T09:36:18.951Z,13.63
2023-04-18T09:38:45.619Z,13.63
2023-04-18T09:41:13.085Z,13.70
2023-04-18T09:43:39.546Z,13.77
2023-04-18T09:46:07.770Z,13.87
2023-04-18T09:48:34.372Z,13.93
2023-04-18T09:51:06.308Z,13.91
2023-04-18T09:53:38.195Z,13.96
2023-04-18T09:56:07.153Z,13.82
2023-04-18T09:58:37.581Z,13.92
2023-04-18T10:01:04.909Z,13.99
2023-04-18T10:03:35.180Z,13.98
2023-04-18T10:06:01.877Z,14.00
2023-04-18T10:08:28.483Z,13.92
2023-04-18T10:10:56.593Z,13.79
2023-04-18T10:13:24.063Z,13.64
2023-04-18T10:15:52.437Z,13.72
2023-04-18T10:18:23.222Z,13.79
2023-04-18T10:20:49.869Z,13.84
2023-04-18T10:23:43.052Z,13.93
2023-04-18T10:26:10.687Z,14.00
2023-04-18T10:28:58.748Z,14.08
2023-04-18T10:31:27.359Z,14.15
2023-04-18T10:34:05.146Z,14.12
2023-04-18T10:36:33.031Z,14.13
2023-04-18T10:39:03.795Z,14.17
2023-04-18T10:41:34.292Z,14.19
2023-04-18T10:44:09.770Z,14.18
2023-04-18T10:46:41.014Z,14.22
2023-04-18T10:49:15.178Z,14.38
2023-04-18T10:51:45.914Z,14.49
2023-04-18T10:54:37.457Z,14.67
2023-04-18T10:57:05.322Z,14.92
2023-04-18T10:59:34.161Z,15.16
2023-04-18T11:02:30.267Z,15.44
2023-04-18T11:04:59.395Z,15.56
2023-04-18T11:07:37.226Z,15.57
2023-04-18T11:10:05.578Z,15.59
2023-04-18T11:12:34.685Z,15.52
2023-04-18T11:15:11.217Z,15.60
2023-04-18T11:17:40.180Z,15.70
2023-04-18T11:20:13.597Z,15.60
2023-04-18T11:22:52.246Z,15.90
2023-04-18T11:25:23.600Z,16.04
2023-04-18T11:27:51.607Z,16.37
2023-04-18T11:30:18.253Z,16.75
2023-04-18T11:32:44.821Z,17.14
2023-04-18T11:35:12.795Z,17.47
2023-04-18T11:37:40.680Z,17.86
2023-04-18T11:40:10.161Z,17.96
2023-04-18T11:42:38.976Z,17.73
2023-04-18T11:45:13.659Z,17.25
2023-04-18T11:47:42.593Z,17.07
2023-04-18T11:50:11.370Z,17.27
2023-04-18T11:52:39.452Z,17.30
2023-04-18T11:55:24.633Z,17.62
2023-04-18T11:57:55.920Z,17.64
2023-04-18T12:00:31.698Z,17.63
2023-04-18T12:02:59.310Z,17.61
2023-04-18T12:05:27.380Z,17.53
2023-04-18T12:07:54.181Z,17.32
2023-04-18T12:10:20.831Z,16.98
2023-04-18T12:12:48.652Z,17.04
2023-04-18T12:15:16.754Z,17.06
2023-04-18T12:17:51.829Z,16.93
2023-04-18T12:20:18.457Z,17.18
2023-04-18T12:22:50.126Z,17.50
2023-04-18T12:25:22.832Z,17.58
2023-04-18T12:27:54.534Z,17.69
2023-04-18T12:30:22.989Z,17.68
2023-04-18T12:32:51.407Z,17.59
2023-04-18T12:35:22.045Z,17.48
2023-04-18T12:37:50.103Z,17.44
2023-04-18T12:40:18.957Z,17.20
2023-04-18T12:42:46.544Z,17.15
2023-04-18T12:45:14.001Z,17.16
2023-04-18T12:47:41.657Z,17.16
2023-04-18T12:50:17.655Z,17.30
2023-04-18T12:52:44.946Z,17.59
2023-04-18T12:55:12.184Z,17.93
2023-04-18T12:57:39.036Z,18.13
2023-04-18T13:00:13.330Z,18.36
2023-04-18T13:02:42.346Z,18.47
2023-04-18T13:05:11.682Z,18.78
2023-04-18T13:07:40.510Z,18.71
2023-04-18T13:10:08.901Z,18.66
2023-04-18T13:12:35.563Z,18.42
2023-04-18T13:15:02.177Z,18.38
2023-04-18T13:17:28.684Z,18.37
2023-04-18T13:19:55.266Z,18.25
2023-04-18T13:22:22.094Z,18.12
2023-04-18T13:24:48.697Z,17.98
2023-04-18T13:27:15.313Z,17.85
2023-04-18T13:29:45.677Z,17.74
2023-04-18T13:32:12.616Z,17.54
2023-04-18T13:34:42.373Z,17.49
2023-04-18T13:37:09.219Z,17.33
2023-04-18T13:39:35.764Z,17.31
2023-04-18T13:42:03.246Z,17.41
2023-04-18T13:44:30.889Z,17.54
2023-04-18T13:46:57.821Z,17.70
2023-04-18T13:49:24.384Z,17.95
2023-04-18T13:51:53.415Z,18.04
2023-04-18T13:54:20.194Z,18.11
2023-04-18T13:56:46.653Z,18.14
2023-04-18T13:59:13.549Z,18.20
2023-04-18T14:01:40.331Z,18.43
2023-04-18T14:04:07.110Z,18.60
2023-04-18T14:06:33.606Z,18.72
2023-04-18T14:09:00.046Z,19.14
2023-04-18T14:11:26.665Z,19.36
2023-04-18T14:13:53.131Z,19.68
2023-04-18T14:16:19.638Z,19.76
2023-04-18T14:18:46.298Z,19.84
2023-04-18T14:21:12.731Z,19.53
2023-04-18T14:23:39.153Z,19.38
2023-04-18T14:26:05.616Z,19.01
2023-04-18T14:28:32.082Z,18.72
2023-04-18T14:31:01.931Z,18.51
2023-04-18T14:33:29.025Z,18.32
2023-04-18T14:35:55.428Z,18.13
2023-04-18T14:38:21.845Z,17.90
2023-04-18T14:40:48.283Z,17.70
2023-04-18T14:43:14.747Z,17.66
2023-04-18T14:45:41.183Z,17.62
2023-04-18T14:48:08.824Z,17.76
2023-04-18T14:50:38.493Z,17.68
2023-04-18T14:53:05.850Z,17.62
2023-04-18T14:55:33.680Z,17.70
2023-04-18T14:58:00.803Z,17.70
2023-04-18T15:00:27.564Z,17.68
2023-04-18T15:02:54.627Z,17.67
2023-04-18T15:05:23.737Z,17.61
2023-04-18T15:07:51.750Z,17.74
2023-04-18T15:10:19.213Z,17.86
2023-04-18T15:12:46.812Z,17.79
2023-04-18T15:15:13.723Z,17.80
2023-04-18T15:17:40.475Z,17.87
2023-04-18T15:20:07.940Z,17.99
2023-04-18T15:22:35.390Z,18.43
2023-04-18T15:25:02.124Z,18.85
2023-04-18T15:27:28.540Z,19.32
2023-04-18T15:29:55.096Z,19.76
2023-04-18T15:32:22.003Z,20.06
2023-04-18T15:34:48.886Z,20.38
2023-04-18T15:37:15.329Z,20.62
2023-04-18T15:39:41.755Z,20.91
2023-04-18T15:42:08.196Z,21.10
2023-04-18T15:44:34.689Z,21.31
2023-04-18T15:47:01.864Z,21.46
2023-04-18T15:49:28.453Z,21.27
2023-04-18T15:51:56.595Z,20.99
2023-04-18T15:54:23.030Z,20.82
2023-04-18T15:56:49.566Z,20.82
2023-04-18T15:59:16.023Z,20.98
2023-04-18T16:01:45.213Z,20.73
2023-04-18T16:04:12.839Z,20.49
2023-04-18T16:06:40.192Z,20.36
2023-04-18T16:09:06.890Z,20.59
2023-04-18T16:11:33.288Z,20.57
2023-04-18T16:13:59.717Z,20.41
2023-04-18T16:16:28.329Z,20.47
2023-04-18T16:18:54.919Z,20.51
2023-04-18T16:21:21.421Z,20.48
2023-04-18T16:23:48.707Z,20.36
2023-04-18T16:26:15.239Z,20.34
2023-04-18T16:28:42.073Z,20.16
2023-04-18T16:31:08.761Z,20.01
2023-04-18T16:33:35.371Z,19.66
2023-04-18T16:36:05.034Z,19.43
2023-04-18T16:38:31.761Z,19.11
2023-04-18T16:41:00.481Z,18.90
2023-04-18T16:43:28.242Z,18.86
2023-04-18T16:45:57.464Z,18.79
2023-04-18T16:48:24.797Z,18.72
2023-04-18T16:50:51.586Z,18.80
2023-04-18T16:53:17.969Z,18.88
2023-04-18T16:55:44.434Z,18.89
2023-04-18T16:58:11.225Z,18.82
2023-04-18T17:00:38.541Z,18.60
2023-04-18T17:03:07.251Z,18.44
2023-04-18T17:05:33.828Z,18.19
2023-04-18T17:08:00.377Z,17.98
2023-04-18T17:10:29.266Z,17.76
2023-04-18T17:12:55.967Z,17.61
2023-04-18T17:15:22.544Z,17.58
2023-04-18T17:17:50.223Z,17.54
2023-04-18T17:20:17.901Z,17.46
2023-04-18T17:22:44.375Z,17.42
2023-04-18T17:25:11.067Z,17.41
2023-04-18T17:27:39.995Z,17.39
2023-04-18T17:30:07.569Z,17.34
2023-04-18T17:32:34.006Z,17.18
2023-04-18T17:35:04.151Z,17.09
2023-04-18T17:37:31.105Z,17.08
2023-04-18T17:39:58.739Z,17.00
2023-04-18T17:42:25.382Z,16.90
2023-04-18T17:44:51.837Z,16.84
2023-04-18T17:47:18.409Z,16.70
2023-04-18T17:49:46.018Z,16.60
2023-04-18T17:52:12.425Z,16.49
2023-04-18T17:54:38.901Z,16.31
2023-04-18T17:57:05.303Z,16.13
2023-04-18T17:59:37.481Z,15.96
2023-04-18T18:02:05.159Z,15.87
2023-04-18T18:04:31.771Z,15.78
2023-04-18T18:06:58.726Z,15.68
2023-04-18T18:09:25.363Z,15.54
2023-04-18T18:11:53.481Z,15.48
2023-04-18T18:14:21.820Z,15.36
2023-04-18T18:16:48.533Z,15.27
2023-04-18T18:19:15.445Z,15.26
2023-04-18T18:21:42.531Z,15.21
2023-04-18T18:24:09.501Z,15.15
2023-04-18T18:26:36.204Z,15.10
2023-04-18T18:29:09.140Z,15.05
2023-04-18T18:31:36.193Z,14.99
2023-04-18T18:34:02.982Z,14.96
2023-04-18T18:36:29.631Z,14.90
2023-04-18T18:38:56.065Z,14.85
2023-04-18T18:41:22.959Z,14.80
2023-04-18T18:43:50.608Z,14.68
2023-04-18T18:46:17.285Z,14.62
2023-04-18T18:48:44.663Z,14.59
2023-04-18T18:51:11.577Z,14.55
2023-04-18T18:53:40.214Z,14.42
2023-04-18T18:56:08.678Z,14.41
2023-04-18T18:58:35.602Z,14.38
2023-04-18T19:01:03.306Z,14.35
2023-04-18T19:03:30.324Z,14.33
2023-04-18T19:05:56.873Z,14.29
2023-04-18T19:08:23.303Z,14.25
2023-04-18T19:10:50.587Z,14.19
2023-04-18T19:13:21.205Z,14.18
2023-04-18T19:15:47.655Z,14.14
2023-04-18T19:18:15.044Z,14.11
2023-04-18T19:20:41.762Z,14.07
2023-04-18T19:23:08.186Z,14.03
2023-04-18T19:25:34.665Z,14.03
2023-04-18T19:28:01.084Z,14.04
2023-04-18T19:30:27.553Z,14.06
2023-04-18T19:32:54.107Z,14.06
2023-04-18T19:35:20.624Z,14.07
2023-04-18T19:37:47.053Z,14.09
2023-04-18T19:40:14.131Z,14.09
2023-04-18T19:42:41.005Z,14.08
2023-04-18T19:45:07.814Z,14.09
2023-04-18T19:47:34.409Z,14.08
2023-04-18T19:50:01.259Z,14.11
2023-04-18T19:52:27.706Z,14.13
2023-04-18T19:54:54.889Z,14.19
2023-04-18T19:57:21.672Z,14.20
2023-04-18T19:59:48.125Z,14.22
2023-04-18T20:02:14.602Z,14.25
2023-04-18T20:04:41.777Z,14.25
2023-04-18T20:07:08.359Z,14.23
2023-04-18T20:09:34.775Z,14.22
2023-04-18T20:12:02.597Z,14.21
2023-04-18T20:14:29.598Z,14.20
2023-04-18T20:16:56.555Z,14.19
2023-04-18T20:19:26.756Z,14.18
2023-04-18T20:21:53.262Z,14.17
2023-04-18T20:24:21.169Z,14.13
2023-04-18T20:26:47.916Z,14.11
2023-04-18T20:29:14.570Z,14.09
2023-04-18T20:31:42.426Z,14.07
2023-04-18T20:34:09.852Z,14.07
2023-04-18T20:36:41.376Z,14.07
2023-04-18T20:39:12.456Z,14.04
2023-04-18T20:41:46.386Z,14.04
2023-04-18T20:44:13.745Z,14.00
2023-04-18T20:46:40.997Z,14.01
2023-04-18T20:49:08.461Z,14.01
2023-04-18T20:51:36.935Z,14.00
2023-04-18T20:54:04.367Z,13.98
2023-04-18T20:56:31.935Z,13.99
2023-04-18T20:58:58.301Z,13.92
2023-04-18T21:01:24.865Z,13.94
2023-04-18T21:03:51.496Z,13.95
2023-04-18T21:06:19.128Z,13.96
2023-04-18T21:08:45.815Z,13.97
2023-04-18T21:11:12.218Z,13.96
2023-04-18T21:13:38.710Z,13.98
2023-04-18T21:16:07.920Z,13.97
2023-04-18T21:18:34.483Z,13.95
2023-04-18T21:21:00.929Z,13.89
2023-04-18T21:23:27.539Z,13.90
2023-04-18T21:25:53.970Z,13.89
2023-04-18T21:28:20.536Z,13.90
2023-04-18T21:30:47.120Z,13.87
2023-04-18T21:33:14.168Z,13.87
2023-04-18T21:35:40.588Z,13.88
2023-04-18T21:38:07.318Z,13.89
2023-04-18T21:40:33.738Z,13.93
2023-04-18T21:43:00.338Z,13.93
2023-04-18T21:45:26.913Z,13.89
2023-04-18T21:47:53.434Z,13.86
2023-04-18T21:50:20.275Z,13.83
2023-04-18T21:52:46.703Z,13.83
2023-04-18T21:55:13.143Z,13.83
2023-04-18T21:57:39.551Z,13.80
2023-04-18T22:00:09.200Z,13.82
2023-04-18T22:02:36.807Z,13.81
2023-04-18T22:05:03.394Z,13.82
2023-04-18T22:07:30.995Z,13.73
2023-04-18T22:09:59.636Z,13.73
2023-04-18T22:12:26.478Z,13.71
2023-04-18T22:14:53.106Z,13.73
2023-04-18T22:17:21.930Z,13.67
2023-04-18T22:19:49.772Z,13.63
2023-04-18T22:22:16.528Z,13.59
2023-04-18T22:24:43.986Z,13.56
2023-04-18T22:27:11.412Z,13.57
2023-04-18T22:29:37.835Z,13.54
2023-04-18T22:32:04.429Z,13.53
2023-04-18T22:34:30.911Z,13.53
2023-04-18T22:36:57.350Z,13.46
2023-04-18T22:39:24.687Z,13.49
2023-04-18T22:41:51.172Z,13.50
2023-04-18T22:44:17.786Z,13.51
2023-04-18T22:46:44.630Z,13.53
2023-04-18T22:49:11.277Z,13.54
2023-04-18T22:51:38.155Z,13.55
2023-04-18T22:54:04.850Z,13.55
2023-04-18T22:56:31.306Z,13.53
2023-04-18T22:58:57.711Z,13.53
2023-04-18T23:01:24.175Z,13.52
2023-04-18T23:03:50.766Z,13.49
2023-04-18T23:06:17.482Z,13.40
2023-04-18T23:08:43.897Z,13.40
2023-04-18T23:11:11.168Z,13.39
2023-04-18T23:13:37.691Z,13.41
2023-04-18T23:16:04.473Z,13.45
2023-04-18T23:18:30.952Z,13.45
2023-04-18T23:20:57.379Z,13.47
2023-04-18T23:23:24.024Z,13.46
2023-04-18T23:25:50.414Z,13.47
2023-04-18T23:28:17.116Z,13.48
2023-04-18T23:30:43.736Z,13.48
2023-04-18T23:33:10.233Z,13.46
2023-04-18T23:35:36.897Z,13.46
2023-04-18T23:38:03.539Z,13.46
2023-04-18T23:40:30.016Z,13.42
2023-04-18T23:42:57.094Z,13.41
2023-04-18T23:45:24.345Z,13.41
2023-04-18T23:47:51.183Z,13.36
2023-04-18T23:50:17.772Z,13.33
2023-04-18T23:52:44.204Z,13.35
2023-04-18T23:55:10.752Z,13.36
2023-04-18T23:57:37.385Z,13.30
